עמוד ראשי
METAR-TAF:

METAR-TAF

שדות תעופה :

סובה, פיג'י

קו רוחב: 18-03S, קו אורך: 178-34E, גובה: 5מטר

תצפית מזג אוויר נוכחית

הדו"ח נערך לפני 1 שעות ו 2דקות, בשעה 09:00 UTC
רוח 4קשר מכיוון צפון-מזרח
טמפרטורת 25 צלסיוס
לחות 94%
לחץ 1014 hPa
ראות 10 קילומטר או יותר
עננים פזורים בגובה 2000רגל
עננים בינוניים בגובה 4500רגל

METAR: NFNA 150900Z 04004KT 9999 SCT020 BKN045 25/24 Q1014

זמן: 22:02 (10:02 UTC)

תחזית

הדו"ח נערך לפני 4 שעות ו 54דקות, בשעה 05:08 UTC
תחזית בתוקף מ 15 ב 06 UTC עד 16 ב 06 UTC
רוח 5קשר מכיוון מזרח/דרום-מזרח
ראות 10 קילומטר או יותר
עננים בינוניים בגובה 1800רגל
עננים בינוניים בגובה 4500רגל

TAF: NFNA 150508Z 1506/1606 12005KT 9999 BKN018 BKN045

תצפיות ותחזיות מזג אוויר לגבי יותר מ- 4,000 שדות תעופה ברחבי העולם. דוחות METAR ו- TAF.

התחנות הזמינות מסומנות בנקודות צהובות ואדומות על גבי המפה.

העבר את העכבר לנקודה הצבעונית על מנת לראות את שם התחנה.

לאחר מכן, לחץ כדי לראות את תוכן ואת תחזיות מזג האוויר.

כדי לשנות את המפה: לחץ על הכפתורים הירוקים עם הפלוס השחור כדי להתקרב; על הכפתור הירוק עם המקף כדי להתרחק; או בחיצים הירוקים למפות סמוכות.


METAR-TAF: